createdAt,value
2018-03-23T00:00:54.201Z,2.90
2018-03-23T00:03:21.696Z,2.80
2018-03-23T00:05:49.247Z,2.70
2018-03-23T00:08:16.730Z,2.70
2018-03-23T00:10:44.236Z,2.70
2018-03-23T00:13:11.733Z,2.70
2018-03-23T00:15:39.285Z,2.70
2018-03-23T00:18:06.819Z,2.70
2018-03-23T00:20:34.320Z,2.70
2018-03-23T00:23:01.822Z,2.70
2018-03-23T00:25:30.188Z,2.70
2018-03-23T00:27:58.565Z,2.70
2018-03-23T00:30:26.929Z,2.70
2018-03-23T00:32:55.280Z,2.70
2018-03-23T00:35:22.869Z,2.70
2018-03-23T00:37:51.247Z,2.70
2018-03-23T00:40:19.696Z,2.70
2018-03-23T00:42:47.285Z,2.70
2018-03-23T00:45:14.872Z,2.70
2018-03-23T00:47:42.471Z,2.70
2018-03-23T00:50:10.125Z,2.70
2018-03-23T00:52:37.732Z,2.70
2018-03-23T00:55:06.112Z,2.80
2018-03-23T00:57:34.498Z,2.80
2018-03-23T01:00:02.872Z,2.80
2018-03-23T01:02:31.224Z,2.80
2018-03-23T01:04:58.810Z,2.80
2018-03-23T01:07:27.163Z,2.80
2018-03-23T01:09:54.744Z,2.80
2018-03-23T01:12:22.408Z,2.80
2018-03-23T01:14:49.992Z,2.70
2018-03-23T01:17:17.590Z,2.70
2018-03-23T01:19:45.189Z,2.70
2018-03-23T01:22:15.577Z,2.70
2018-03-23T01:24:43.188Z,2.70
2018-03-23T01:27:11.617Z,2.70
2018-03-23T01:29:39.225Z,2.70
2018-03-23T01:32:07.609Z,2.70
2018-03-23T01:34:35.988Z,2.70
2018-03-23T01:37:04.384Z,2.70
2018-03-23T01:39:31.976Z,2.70
2018-03-23T01:41:59.559Z,2.60
2018-03-23T01:44:27.140Z,2.70
2018-03-23T01:46:54.716Z,2.70
2018-03-23T01:49:23.078Z,2.80
2018-03-23T01:51:50.669Z,2.70
2018-03-23T01:54:18.274Z,2.70
2018-03-23T01:56:45.861Z,2.70
2018-03-23T01:59:14.217Z,2.70
2018-03-23T02:01:41.904Z,2.70
2018-03-23T02:04:10.289Z,2.80
2018-03-23T02:06:38.664Z,2.70
2018-03-23T02:09:07.036Z,2.70
2018-03-23T02:11:35.391Z,2.80
2018-03-23T02:14:03.004Z,2.70
2018-03-23T02:16:30.614Z,2.70
2018-03-23T02:18:58.208Z,2.70
2018-03-23T02:21:26.580Z,2.70
2018-03-23T02:23:54.251Z,2.70
2018-03-23T02:26:22.620Z,2.70
2018-03-23T02:28:50.988Z,2.70
2018-03-23T02:31:18.582Z,2.70
2018-03-23T02:33:46.227Z,2.70
2018-03-23T02:36:14.592Z,2.80
2018-03-23T02:38:42.944Z,2.80
2018-03-23T02:41:10.541Z,2.80
2018-03-23T02:43:38.907Z,2.80
2018-03-23T02:46:06.513Z,2.70
2018-03-23T02:48:34.156Z,2.70
2018-03-23T02:51:02.604Z,2.80
2018-03-23T02:53:30.197Z,2.80
2018-03-23T02:55:58.582Z,2.80
2018-03-23T02:58:26.208Z,2.80
2018-03-23T03:00:53.797Z,2.70
2018-03-23T03:03:21.940Z,2.70
2018-03-23T03:05:49.529Z,2.80
2018-03-23T03:08:17.179Z,2.80
2018-03-23T03:10:45.549Z,2.80
2018-03-23T03:13:13.144Z,2.80
2018-03-23T03:15:40.736Z,2.80
2018-03-23T03:18:08.350Z,2.80
2018-03-23T03:20:36.777Z,2.80
2018-03-23T03:23:04.366Z,2.80
2018-03-23T03:25:32.053Z,2.90
2018-03-23T03:28:00.432Z,2.90
2018-03-23T03:30:28.800Z,2.90
2018-03-23T03:32:57.188Z,2.90
2018-03-23T03:35:25.544Z,2.80
2018-03-23T03:37:53.128Z,2.80
2018-03-23T03:40:20.756Z,2.90
2018-03-23T03:42:48.345Z,2.90
2018-03-23T03:45:17.312Z,2.90
2018-03-23T03:47:44.899Z,2.90
2018-03-23T03:50:13.278Z,2.90
2018-03-23T03:52:41.636Z,2.90
2018-03-23T03:55:09.331Z,2.90
2018-03-23T03:57:37.709Z,3.00
2018-03-23T04:00:06.078Z,3.00
2018-03-23T04:02:34.431Z,3.00
2018-03-23T04:05:02.036Z,3.00
2018-03-23T04:07:30.376Z,3.00
2018-03-23T04:09:58.011Z,2.90
2018-03-23T04:12:25.583Z,2.90
2018-03-23T04:14:53.283Z,2.90
2018-03-23T04:17:22.032Z,2.90
2018-03-23T04:19:49.633Z,2.90
2018-03-23T04:22:18.152Z,3.00
2018-03-23T04:24:45.783Z,2.90
2018-03-23T04:27:14.127Z,3.00
2018-03-23T04:29:42.523Z,3.00
2018-03-23T04:32:10.104Z,3.00
2018-03-23T04:34:38.469Z,3.00
2018-03-23T04:37:06.145Z,3.10
2018-03-23T04:39:34.524Z,3.00
2018-03-23T04:42:02.876Z,3.10
2018-03-23T04:44:30.481Z,3.00
2018-03-23T04:46:58.065Z,3.10
2018-03-23T04:49:25.668Z,3.10
2018-03-23T04:51:54.028Z,3.00
2018-03-23T04:54:21.620Z,3.10
2018-03-23T04:56:50.000Z,3.10
2018-03-23T04:59:18.372Z,3.10
2018-03-23T05:01:45.977Z,3.10
2018-03-23T05:04:13.580Z,3.10
2018-03-23T05:06:41.248Z,3.10
2018-03-23T05:09:08.913Z,3.10
2018-03-23T05:11:37.273Z,3.10
2018-03-23T05:14:04.958Z,3.10
2018-03-23T05:16:33.315Z,3.10
2018-03-23T05:19:01.003Z,3.10
2018-03-23T05:21:29.350Z,3.10
2018-03-23T05:23:57.735Z,3.10
2018-03-23T05:26:25.421Z,3.10
2018-03-23T05:28:53.800Z,3.10
2018-03-23T05:31:22.144Z,3.10
2018-03-23T05:33:50.540Z,3.10
2018-03-23T05:36:18.219Z,3.10
2018-03-23T05:38:46.640Z,3.10
2018-03-23T05:41:14.224Z,3.10
2018-03-23T05:43:41.919Z,3.10
2018-03-23T05:46:10.303Z,3.20
2018-03-23T05:48:37.998Z,3.20
2018-03-23T05:51:05.582Z,3.20
2018-03-23T05:53:33.276Z,3.20
2018-03-23T05:56:00.844Z,3.20
2018-03-23T05:58:28.517Z,3.20
2018-03-23T06:00:56.876Z,3.30
2018-03-23T06:03:24.468Z,3.30
2018-03-23T06:05:52.226Z,3.30
2018-03-23T06:08:20.572Z,3.30
2018-03-23T06:10:48.258Z,3.30
2018-03-23T06:13:16.640Z,3.10
2018-03-23T06:15:45.017Z,3.10
2018-03-23T06:18:13.376Z,3.10
2018-03-23T06:20:41.107Z,3.10
2018-03-23T06:23:08.771Z,3.10
2018-03-23T06:25:36.381Z,3.20
2018-03-23T06:28:04.754Z,3.30
2018-03-23T06:30:32.330Z,3.30
2018-03-23T06:33:00.697Z,3.30
2018-03-23T06:35:29.070Z,3.30
2018-03-23T06:37:56.656Z,3.30
2018-03-23T06:40:24.240Z,3.30
2018-03-23T06:42:51.832Z,3.40
2018-03-23T06:45:19.409Z,3.40
2018-03-23T06:47:47.083Z,3.40
2018-03-23T06:50:15.424Z,3.50
2018-03-23T06:52:43.014Z,3.50
2018-03-23T06:55:10.596Z,3.50
2018-03-23T06:57:39.035Z,3.60
2018-03-23T07:00:06.618Z,3.60
2018-03-23T07:02:34.289Z,3.70
2018-03-23T07:05:02.639Z,3.70
2018-03-23T07:07:30.367Z,3.80
2018-03-23T07:09:57.948Z,3.80
2018-03-23T07:12:25.536Z,3.70
2018-03-23T07:14:53.892Z,3.80
2018-03-23T07:17:21.483Z,3.80
2018-03-23T07:19:49.149Z,3.90
2018-03-23T07:22:17.543Z,3.90
2018-03-23T07:24:45.129Z,3.90
2018-03-23T07:27:12.920Z,3.90
2018-03-23T07:29:40.510Z,3.90
2018-03-23T07:32:08.100Z,4.00
2018-03-23T07:34:35.796Z,4.00
2018-03-23T07:37:03.405Z,4.10
2018-03-23T07:39:31.756Z,4.20
2018-03-23T07:41:59.340Z,4.20
2018-03-23T07:44:27.698Z,4.10
2018-03-23T07:46:55.299Z,4.10
2018-03-23T07:49:22.888Z,4.10
2018-03-23T07:51:50.496Z,4.00
2018-03-23T07:54:18.088Z,4.10
2018-03-23T07:56:45.666Z,4.10
2018-03-23T07:59:13.354Z,4.00
2018-03-23T08:01:40.941Z,4.00
2018-03-23T08:04:09.316Z,4.00
2018-03-23T08:06:36.892Z,4.00
2018-03-23T08:09:05.265Z,4.00
2018-03-23T08:11:33.621Z,4.10
2018-03-23T08:14:01.200Z,4.10
2018-03-23T08:16:29.545Z,4.20
2018-03-23T08:18:57.127Z,4.20
2018-03-23T08:21:24.707Z,4.10
2018-03-23T08:23:53.072Z,4.10
2018-03-23T08:26:21.452Z,4.10
2018-03-23T08:28:49.056Z,4.10
2018-03-23T08:31:16.728Z,4.10
2018-03-23T08:33:44.418Z,4.00
2018-03-23T08:36:12.827Z,4.10
2018-03-23T08:38:41.175Z,4.10
2018-03-23T08:41:08.755Z,4.10
2018-03-23T08:43:36.359Z,4.10
2018-03-23T08:46:03.955Z,4.10
2018-03-23T08:48:31.545Z,4.20
2018-03-23T08:50:59.909Z,4.30
2018-03-23T08:53:27.515Z,4.30
2018-03-23T08:55:55.155Z,4.40
2018-03-23T08:58:23.700Z,4.40
2018-03-23T09:00:52.095Z,4.50
2018-03-23T09:03:19.696Z,4.50
2018-03-23T09:05:47.273Z,4.50
2018-03-23T09:08:14.873Z,4.50
2018-03-23T09:10:42.601Z,4.50
2018-03-23T09:13:10.283Z,4.60
2018-03-23T09:15:37.894Z,4.70
2018-03-23T09:18:05.500Z,4.80
2018-03-23T09:20:33.116Z,4.80
2018-03-23T09:23:01.479Z,4.80
2018-03-23T09:25:29.861Z,4.70
2018-03-23T09:27:58.212Z,4.70
2018-03-23T09:30:25.801Z,4.60
2018-03-23T09:32:54.202Z,4.60
2018-03-23T09:35:21.787Z,4.60
2018-03-23T09:37:49.411Z,4.60
2018-03-23T09:40:17.009Z,4.60
2018-03-23T09:42:44.592Z,4.60
2018-03-23T09:45:12.269Z,4.70
2018-03-23T09:47:40.045Z,4.70
2018-03-23T09:50:08.406Z,4.60
2018-03-23T09:52:36.084Z,4.60
2018-03-23T09:55:04.472Z,4.60
2018-03-23T09:57:32.862Z,4.70
2018-03-23T10:00:00.452Z,4.70
2018-03-23T10:02:28.069Z,4.70
2018-03-23T10:04:56.430Z,4.70
2018-03-23T10:07:24.015Z,4.70
2018-03-23T10:09:52.393Z,4.70
2018-03-23T10:12:20.760Z,4.70
2018-03-23T10:14:48.371Z,4.70
2018-03-23T10:17:15.960Z,4.70
2018-03-23T10:19:43.540Z,4.70
2018-03-23T10:22:11.126Z,4.70
2018-03-23T10:24:39.475Z,4.80
2018-03-23T10:27:07.156Z,4.70
2018-03-23T10:29:35.533Z,4.60
2018-03-23T10:32:03.910Z,4.70
2018-03-23T10:34:32.271Z,4.70
2018-03-23T10:36:59.864Z,4.70
2018-03-23T10:39:27.446Z,4.80
2018-03-23T10:41:55.068Z,4.80
2018-03-23T10:44:23.419Z,5.10
2018-03-23T10:46:51.023Z,5.10
2018-03-23T10:49:18.602Z,5.20
2018-03-23T10:51:46.198Z,5.20
2018-03-23T10:54:13.778Z,5.30
2018-03-23T10:56:41.449Z,5.20
2018-03-23T10:59:09.788Z,5.20
2018-03-23T11:01:43.007Z,5.20
2018-03-23T11:04:10.597Z,5.20
2018-03-23T11:06:38.957Z,5.30
2018-03-23T11:09:06.676Z,5.40
2018-03-23T11:11:34.281Z,5.40
2018-03-23T11:14:02.684Z,5.40
2018-03-23T11:16:30.280Z,5.40
2018-03-23T11:18:57.920Z,5.50
2018-03-23T11:21:25.566Z,5.40
2018-03-23T11:23:53.149Z,5.50
2018-03-23T11:26:20.733Z,5.50
2018-03-23T11:28:48.338Z,5.30
2018-03-23T11:31:16.697Z,5.10
2018-03-23T11:33:45.211Z,5.10
2018-03-23T11:36:12.850Z,5.10
2018-03-23T11:38:41.229Z,5.10
2018-03-23T11:41:09.709Z,5.10
2018-03-23T11:43:37.377Z,5.10
2018-03-23T11:46:05.746Z,5.10
2018-03-23T11:48:33.340Z,5.00
2018-03-23T11:51:00.925Z,5.10
2018-03-23T11:53:28.508Z,5.00
2018-03-23T11:55:56.208Z,5.00
2018-03-23T11:58:24.559Z,5.00
2018-03-23T12:00:52.152Z,5.00
2018-03-23T12:03:20.515Z,5.10
2018-03-23T12:05:48.870Z,5.20
2018-03-23T12:08:16.445Z,5.20
2018-03-23T12:10:44.048Z,5.30
2018-03-23T12:13:11.640Z,5.30
2018-03-23T12:15:39.349Z,5.30
2018-03-23T12:18:07.697Z,5.40
2018-03-23T12:20:35.388Z,5.40
2018-03-23T12:23:03.774Z,5.50
2018-03-23T12:25:31.365Z,5.40
2018-03-23T12:27:58.956Z,5.50
2018-03-23T12:30:26.575Z,5.50
2018-03-23T12:32:54.218Z,5.50
2018-03-23T12:35:22.611Z,5.40
2018-03-23T12:37:50.949Z,5.40
2018-03-23T12:40:19.378Z,5.40
2018-03-23T12:42:46.976Z,5.30
2018-03-23T12:45:14.575Z,5.30
2018-03-23T12:47:42.173Z,5.50
2018-03-23T12:50:09.803Z,5.40
2018-03-23T12:52:37.427Z,5.40
2018-03-23T12:55:05.008Z,5.40
2018-03-23T12:57:33.409Z,5.50
2018-03-23T13:00:01.101Z,5.50
2018-03-23T13:02:28.739Z,5.50
2018-03-23T13:04:56.321Z,5.60
2018-03-23T13:07:23.905Z,5.60
2018-03-23T13:09:51.508Z,5.60
2018-03-23T13:12:19.104Z,5.50
2018-03-23T13:14:46.758Z,5.50
2018-03-23T13:17:15.195Z,5.50
2018-03-23T13:19:42.794Z,5.50
2018-03-23T13:22:10.552Z,5.50
2018-03-23T13:24:38.305Z,5.50
2018-03-23T13:27:05.935Z,5.50
2018-03-23T13:29:33.624Z,5.60
2018-03-23T13:32:01.981Z,5.50
2018-03-23T13:34:29.560Z,5.40
2018-03-23T13:36:57.937Z,5.60
2018-03-23T13:39:26.296Z,5.60
2018-03-23T13:41:53.885Z,5.60
2018-03-23T13:44:21.474Z,5.60
2018-03-23T13:46:49.078Z,5.70
2018-03-23T13:49:16.655Z,5.70
2018-03-23T13:51:45.020Z,5.80
2018-03-23T13:54:12.685Z,5.80
2018-03-23T13:56:40.313Z,5.90
2018-03-23T13:59:13.584Z,5.80
2018-03-23T14:01:41.209Z,5.90
2018-03-23T14:04:09.592Z,6.10
2018-03-23T14:06:37.953Z,6.20
2018-03-23T14:09:05.530Z,6.20
2018-03-23T14:11:33.935Z,6.20
2018-03-23T14:14:01.662Z,6.20
2018-03-23T14:16:30.032Z,6.30
2018-03-23T14:18:57.639Z,6.30
2018-03-23T14:21:25.226Z,6.30
2018-03-23T14:23:52.830Z,6.40
2018-03-23T14:26:21.273Z,6.10
2018-03-23T14:28:49.700Z,6.10
2018-03-23T14:31:17.358Z,6.10
2018-03-23T14:33:45.706Z,6.00
2018-03-23T14:36:13.296Z,6.00
2018-03-23T14:38:41.652Z,6.00
2018-03-23T14:41:09.520Z,6.00
2018-03-23T14:43:37.092Z,6.00
2018-03-23T14:46:04.757Z,6.00
2018-03-23T14:48:33.143Z,6.10
2018-03-23T14:51:01.509Z,6.10
2018-03-23T14:53:29.147Z,6.00
2018-03-23T14:55:56.840Z,6.10
2018-03-23T14:58:25.287Z,6.00
2018-03-23T15:00:52.882Z,5.90
2018-03-23T15:03:21.232Z,6.00
2018-03-23T15:05:48.811Z,6.00
2018-03-23T15:08:16.458Z,5.90
2018-03-23T15:10:44.093Z,5.70
2018-03-23T15:13:11.704Z,5.60
2018-03-23T15:15:40.080Z,5.60
2018-03-23T15:18:07.716Z,5.60
2018-03-23T15:20:35.509Z,5.60
2018-03-23T15:23:03.855Z,5.60
2018-03-23T15:25:31.439Z,5.50
2018-03-23T15:27:59.044Z,5.50
2018-03-23T15:30:26.638Z,5.40
2018-03-23T15:32:54.248Z,5.30
2018-03-23T15:35:21.896Z,5.30
2018-03-23T15:37:50.256Z,5.20
2018-03-23T15:40:17.871Z,5.20
2018-03-23T15:42:45.503Z,5.20
2018-03-23T15:45:13.971Z,5.20
2018-03-23T15:47:41.543Z,5.20
2018-03-23T15:50:09.285Z,5.20
2018-03-23T15:52:36.999Z,5.10
2018-03-23T15:55:04.585Z,5.10
2018-03-23T15:57:32.164Z,5.10
2018-03-23T15:59:59.803Z,5.10
2018-03-23T16:02:27.392Z,5.10
2018-03-23T16:04:55.128Z,5.10
2018-03-23T16:07:22.869Z,5.10
2018-03-23T16:09:50.477Z,5.00
2018-03-23T16:12:18.160Z,5.00
2018-03-23T16:14:46.516Z,5.00
2018-03-23T16:17:14.096Z,5.00
2018-03-23T16:19:42.453Z,5.00
2018-03-23T16:22:10.135Z,5.00
2018-03-23T16:24:37.769Z,5.00
2018-03-23T16:27:05.351Z,4.90
2018-03-23T16:29:33.721Z,4.90
2018-03-23T16:32:01.330Z,4.90
2018-03-23T16:34:28.925Z,4.80
2018-03-23T16:36:56.571Z,4.80
2018-03-23T16:39:24.234Z,4.80
2018-03-23T16:41:51.816Z,4.80
2018-03-23T16:44:19.448Z,4.80
2018-03-23T16:46:47.015Z,4.80
2018-03-23T16:49:14.621Z,4.70
2018-03-23T16:51:42.225Z,4.70
2018-03-23T16:54:09.824Z,4.70
2018-03-23T16:56:37.401Z,4.60
2018-03-23T16:59:05.024Z,4.60
2018-03-23T17:01:32.644Z,4.60
2018-03-23T17:04:01.050Z,4.50
2018-03-23T17:06:28.628Z,4.50
2018-03-23T17:08:56.212Z,4.50
2018-03-23T17:11:23.806Z,4.50
2018-03-23T17:13:52.156Z,4.50
2018-03-23T17:16:19.837Z,4.50
2018-03-23T17:18:48.216Z,4.40
2018-03-23T17:21:16.559Z,4.40
2018-03-23T17:23:44.140Z,4.40
2018-03-23T17:26:11.820Z,4.40
2018-03-23T17:28:40.176Z,4.30
2018-03-23T17:31:07.764Z,4.30
2018-03-23T17:33:36.108Z,4.30
2018-03-23T17:36:03.804Z,4.30
2018-03-23T17:38:32.184Z,4.20
2018-03-23T17:41:00.570Z,4.20
2018-03-23T17:43:29.090Z,4.20
2018-03-23T17:45:56.655Z,4.20
2018-03-23T17:48:24.228Z,4.20
2018-03-23T17:50:51.928Z,4.20
2018-03-23T17:53:20.301Z,4.20
2018-03-23T17:55:48.659Z,4.20
2018-03-23T17:58:17.030Z,4.20
2018-03-23T18:00:44.786Z,4.20
2018-03-23T18:03:12.372Z,4.10
2018-03-23T18:05:39.965Z,4.10
2018-03-23T18:08:07.624Z,4.20
2018-03-23T18:10:35.221Z,4.10
2018-03-23T18:13:02.822Z,4.10
2018-03-23T18:15:30.545Z,4.10
2018-03-23T18:17:58.143Z,4.10
2018-03-23T18:20:25.832Z,4.10
2018-03-23T18:22:53.511Z,4.10
2018-03-23T18:25:21.127Z,4.10
2018-03-23T18:27:48.732Z,4.00
2018-03-23T18:30:16.344Z,4.00
2018-03-23T18:32:44.018Z,4.00
2018-03-23T18:35:11.630Z,4.00
2018-03-23T18:37:39.209Z,4.00
2018-03-23T18:40:06.881Z,3.90
2018-03-23T18:42:34.478Z,3.90
2018-03-23T18:45:02.848Z,3.80
2018-03-23T18:47:31.233Z,3.80
2018-03-23T18:49:59.597Z,3.80
2018-03-23T18:52:27.945Z,3.80
2018-03-23T18:54:55.526Z,3.80
2018-03-23T18:57:23.124Z,3.80
2018-03-23T18:59:50.712Z,3.80
2018-03-23T19:02:18.616Z,3.80
2018-03-23T19:04:46.986Z,3.70
2018-03-23T19:07:14.699Z,3.70
2018-03-23T19:09:42.344Z,3.70
2018-03-23T19:12:10.699Z,3.80
2018-03-23T19:14:38.295Z,3.70
2018-03-23T19:17:06.055Z,3.70
2018-03-23T19:19:33.659Z,3.80
2018-03-23T19:22:01.258Z,3.70
2018-03-23T19:24:29.623Z,3.60
2018-03-23T19:26:57.308Z,3.60
2018-03-23T19:29:25.685Z,3.60
2018-03-23T19:31:54.113Z,3.60
2018-03-23T19:34:21.754Z,3.60
2018-03-23T19:36:49.354Z,3.60
2018-03-23T19:39:16.924Z,3.50
2018-03-23T19:41:44.544Z,3.50
2018-03-23T19:44:12.128Z,3.50
2018-03-23T19:46:39.784Z,3.50
2018-03-23T19:49:07.328Z,3.50
2018-03-23T19:51:34.942Z,3.60
2018-03-23T19:54:02.627Z,3.50
2018-03-23T19:56:31.899Z,3.50
2018-03-23T19:59:00.268Z,3.50
2018-03-23T20:01:27.872Z,3.50
2018-03-23T20:03:55.471Z,3.50
2018-03-23T20:06:23.069Z,3.50
2018-03-23T20:08:50.644Z,3.40
2018-03-23T20:11:18.997Z,3.40
2018-03-23T20:13:53.088Z,3.40
2018-03-23T20:16:20.705Z,3.40
2018-03-23T20:18:48.276Z,3.40
2018-03-23T20:21:15.920Z,3.40
2018-03-23T20:23:43.531Z,3.30
2018-03-23T20:26:11.133Z,3.30
2018-03-23T20:28:42.874Z,3.20
2018-03-23T20:31:10.483Z,3.20
2018-03-23T20:33:38.070Z,3.20
2018-03-23T20:36:05.705Z,3.20
2018-03-23T20:38:33.333Z,3.30
2018-03-23T20:41:00.961Z,3.20
2018-03-23T20:43:29.376Z,3.20
2018-03-23T20:45:57.735Z,3.20
2018-03-23T20:48:25.421Z,3.20
2018-03-23T20:50:53.921Z,3.10
2018-03-23T20:53:21.536Z,3.10
2018-03-23T20:55:49.309Z,3.10
2018-03-23T20:58:17.677Z,3.10
2018-03-23T21:00:46.799Z,3.00
2018-03-23T21:03:15.152Z,3.00
2018-03-23T21:05:42.745Z,3.00
2018-03-23T21:08:11.117Z,3.00
2018-03-23T21:10:39.502Z,3.00
2018-03-23T21:13:07.851Z,3.00
2018-03-23T21:15:35.535Z,2.90
2018-03-23T21:18:03.917Z,2.90
2018-03-23T21:20:32.292Z,2.90
2018-03-23T21:23:00.648Z,2.90
2018-03-23T21:25:28.253Z,2.90
2018-03-23T21:27:55.844Z,2.90
2018-03-23T21:30:23.742Z,2.90
2018-03-23T21:32:51.340Z,2.80
2018-03-23T21:35:18.985Z,2.80
2018-03-23T21:37:47.357Z,2.80
2018-03-23T21:40:15.733Z,2.80
2018-03-23T21:42:43.325Z,2.80
2018-03-23T21:45:10.966Z,2.80
2018-03-23T21:47:39.392Z,2.80
2018-03-23T21:50:06.993Z,2.70
2018-03-23T21:52:34.588Z,2.80
2018-03-23T21:55:02.278Z,2.90
2018-03-23T21:57:29.965Z,2.80
2018-03-23T21:59:57.565Z,2.70
2018-03-23T22:02:25.189Z,2.70
2018-03-23T22:04:52.922Z,2.70
2018-03-23T22:07:21.393Z,2.70
2018-03-23T22:09:49.119Z,2.60
2018-03-23T22:12:16.876Z,2.70
2018-03-23T22:14:45.265Z,2.60
2018-03-23T22:17:13.680Z,2.60
2018-03-23T22:19:41.314Z,2.60
2018-03-23T22:22:09.282Z,2.60
2018-03-23T22:24:37.662Z,2.50
2018-03-23T22:27:05.276Z,2.50
2018-03-23T22:29:32.939Z,2.50
2018-03-23T22:32:00.632Z,2.50
2018-03-23T22:34:28.257Z,2.50
2018-03-23T22:36:55.864Z,2.50
2018-03-23T22:39:23.488Z,2.50
2018-03-23T22:41:51.782Z,2.50
2018-03-23T22:44:19.650Z,2.50
2018-03-23T22:46:47.493Z,2.50
2018-03-23T22:49:15.418Z,2.50
2018-03-23T22:51:43.063Z,2.60
2018-03-23T22:54:11.093Z,2.60
2018-03-23T22:56:38.727Z,2.50
2018-03-23T22:59:06.388Z,2.50
2018-03-23T23:01:34.053Z,2.50
2018-03-23T23:04:01.974Z,2.50
2018-03-23T23:06:29.733Z,2.50
2018-03-23T23:08:57.377Z,2.50
2018-03-23T23:11:25.156Z,2.40
2018-03-23T23:13:52.877Z,2.40
2018-03-23T23:16:20.590Z,2.50
2018-03-23T23:18:48.189Z,2.50
2018-03-23T23:21:15.859Z,2.40
2018-03-23T23:23:43.593Z,2.40
2018-03-23T23:26:12.041Z,2.40
2018-03-23T23:28:39.721Z,2.40
2018-03-23T23:31:07.446Z,2.40
2018-03-23T23:33:35.147Z,2.40
2018-03-23T23:36:03.589Z,2.40
2018-03-23T23:38:31.246Z,2.40
2018-03-23T23:40:58.924Z,2.40
2018-03-23T23:43:27.287Z,2.40
2018-03-23T23:45:54.921Z,3.10
2018-03-23T23:48:23.364Z,2.80
2018-03-23T23:50:50.964Z,2.80
2018-03-23T23:53:19.388Z,2.60
2018-03-23T23:55:47.006Z,2.60
2018-03-23T23:58:15.365Z,2.50
